sensor_id;sensor_type;location;lat;lon;timestamp;temperature;humidity
49717;DHT22;35609;53.166;7.610;2023-03-04T00:01:45;5.10;99.90
49717;DHT22;35609;53.166;7.610;2023-03-04T00:04:11;5.10;99.90
49717;DHT22;35609;53.166;7.610;2023-03-04T00:06:36;5.00;99.90
49717;DHT22;35609;53.166;7.610;2023-03-04T00:09:03;5.10;99.90
49717;DHT22;35609;53.166;7.610;2023-03-04T00:11:29;5.00;99.90
49717;DHT22;35609;53.166;7.610;2023-03-04T00:13:56;5.00;99.90
49717;DHT22;35609;53.166;7.610;2023-03-04T00:16:23;5.00;99.90
49717;DHT22;35609;53.166;7.610;2023-03-04T00:18:52;5.00;99.90
49717;DHT22;35609;53.166;7.610;2023-03-04T00:21:18;5.00;99.90
49717;DHT22;35609;53.166;7.610;2023-03-04T00:23:43;5.00;99.90
49717;DHT22;35609;53.166;7.610;2023-03-04T00:26:09;5.00;99.90
49717;DHT22;35609;53.166;7.610;2023-03-04T00:28:35;5.00;99.90
49717;DHT22;35609;53.166;7.610;2023-03-04T00:31:00;5.10;99.90
49717;DHT22;35609;53.166;7.610;2023-03-04T00:33:26;5.10;99.90
49717;DHT22;35609;53.166;7.610;2023-03-04T00:35:52;5.20;99.90
49717;DHT22;35609;53.166;7.610;2023-03-04T00:38:17;5.10;99.90
49717;DHT22;35609;53.166;7.610;2023-03-04T00:40:43;5.10;99.90
49717;DHT22;35609;53.166;7.610;2023-03-04T00:43:08;5.20;99.90
49717;DHT22;35609;53.166;7.610;2023-03-04T00:45:34;5.20;99.90
49717;DHT22;35609;53.166;7.610;2023-03-04T00:48:00;5.20;99.90
49717;DHT22;35609;53.166;7.610;2023-03-04T00:50:25;5.20;99.90
49717;DHT22;35609;53.166;7.610;2023-03-04T00:52:51;5.20;99.90
49717;DHT22;35609;53.166;7.610;2023-03-04T00:55:17;5.20;99.90
49717;DHT22;35609;53.166;7.610;2023-03-04T00:57:42;5.20;99.90
49717;DHT22;35609;53.166;7.610;2023-03-04T01:00:09;5.20;99.90
49717;DHT22;35609;53.166;7.610;2023-03-04T01:02:35;5.20;99.90
49717;DHT22;35609;53.166;7.610;2023-03-04T01:05:01;5.20;99.90
49717;DHT22;35609;53.166;7.610;2023-03-04T01:07:26;5.20;99.90
49717;DHT22;35609;53.166;7.610;2023-03-04T01:09:52;5.20;99.90
49717;DHT22;35609;53.166;7.610;2023-03-04T01:12:18;5.20;99.90
49717;DHT22;35609;53.166;7.610;2023-03-04T01:14:43;5.20;99.90
49717;DHT22;35609;53.166;7.610;2023-03-04T01:17:09;5.20;99.90
49717;DHT22;35609;53.166;7.610;2023-03-04T01:19:36;5.20;99.90
49717;DHT22;35609;53.166;7.610;2023-03-04T01:22:02;5.20;99.90
49717;DHT22;35609;53.166;7.610;2023-03-04T01:24:28;5.20;99.90
49717;DHT22;35609;53.166;7.610;2023-03-04T01:26:54;5.20;99.90
49717;DHT22;35609;53.166;7.610;2023-03-04T01:29:20;5.20;99.90
49717;DHT22;35609;53.166;7.610;2023-03-04T01:31:46;5.20;99.90
49717;DHT22;35609;53.166;7.610;2023-03-04T01:34:12;5.20;99.90
49717;DHT22;35609;53.166;7.610;2023-03-04T01:36:37;5.20;99.90
49717;DHT22;35609;53.166;7.610;2023-03-04T01:39:03;5.20;99.90
49717;DHT22;35609;53.166;7.610;2023-03-04T01:41:29;5.10;99.90
49717;DHT22;35609;53.166;7.610;2023-03-04T01:43:59;5.20;99.90
49717;DHT22;35609;53.166;7.610;2023-03-04T01:46:27;5.20;99.90
49717;DHT22;35609;53.166;7.610;2023-03-04T01:48:54;5.10;99.90
49717;DHT22;35609;53.166;7.610;2023-03-04T01:51:20;5.20;99.90
49717;DHT22;35609;53.166;7.610;2023-03-04T01:53:48;5.10;99.90
49717;DHT22;35609;53.166;7.610;2023-03-04T01:56:24;5.30;99.90
49717;DHT22;35609;53.166;7.610;2023-03-04T01:59:16;5.10;99.90
49717;DHT22;35609;53.166;7.610;2023-03-04T02:01:48;5.10;99.90
49717;DHT22;35609;53.166;7.610;2023-03-04T02:04:16;5.10;99.90
49717;DHT22;35609;53.166;7.610;2023-03-04T02:06:43;5.20;99.90
49717;DHT22;35609;53.166;7.610;2023-03-04T02:09:10;5.10;99.90
49717;DHT22;35609;53.166;7.610;2023-03-04T02:11:37;5.10;99.90
49717;DHT22;35609;53.166;7.610;2023-03-04T02:14:03;5.10;99.90
49717;DHT22;35609;53.166;7.610;2023-03-04T02:16:30;5.10;99.90
49717;DHT22;35609;53.166;7.610;2023-03-04T02:18:56;5.10;99.90
49717;DHT22;35609;53.166;7.610;2023-03-04T02:21:28;5.10;99.90
49717;DHT22;35609;53.166;7.610;2023-03-04T02:26:30;5.10;99.90
49717;DHT22;35609;53.166;7.610;2023-03-04T02:28:58;5.10;99.90
49717;DHT22;35609;53.166;7.610;2023-03-04T02:34:00;5.10;99.90
49717;DHT22;35609;53.166;7.610;2023-03-04T02:36:27;5.00;99.90
49717;DHT22;35609;53.166;7.610;2023-03-04T02:38:54;5.00;99.90
49717;DHT22;35609;53.166;7.610;2023-03-04T02:41:24;5.10;99.90
49717;DHT22;35609;53.166;7.610;2023-03-04T02:43:53;5.10;99.90
49717;DHT22;35609;53.166;7.610;2023-03-04T02:46:19;5.00;99.90
49717;DHT22;35609;53.166;7.610;2023-03-04T02:48:45;5.00;99.90
49717;DHT22;35609;53.166;7.610;2023-03-04T02:51:11;5.00;99.90
49717;DHT22;35609;53.166;7.610;2023-03-04T02:53:36;5.00;99.90
49717;DHT22;35609;53.166;7.610;2023-03-04T02:56:02;5.00;99.90
49717;DHT22;35609;53.166;7.610;2023-03-04T02:58:28;5.00;99.90
49717;DHT22;35609;53.166;7.610;2023-03-04T03:00:54;5.00;99.90
49717;DHT22;35609;53.166;7.610;2023-03-04T03:03:22;5.00;99.90
49717;DHT22;35609;53.166;7.610;2023-03-04T03:05:48;4.90;99.90
49717;DHT22;35609;53.166;7.610;2023-03-04T03:08:14;5.00;99.90
49717;DHT22;35609;53.166;7.610;2023-03-04T03:10:39;5.00;99.90
49717;DHT22;35609;53.166;7.610;2023-03-04T03:13:05;4.80;99.90
49717;DHT22;35609;53.166;7.610;2023-03-04T03:15:31;4.90;99.90
49717;DHT22;35609;53.166;7.610;2023-03-04T03:17:57;5.10;99.90
49717;DHT22;35609;53.166;7.610;2023-03-04T03:20:23;4.90;99.90
49717;DHT22;35609;53.166;7.610;2023-03-04T03:22:48;4.80;99.90
49717;DHT22;35609;53.166;7.610;2023-03-04T03:25:15;4.90;99.90
49717;DHT22;35609;53.166;7.610;2023-03-04T03:27:41;4.90;99.90
49717;DHT22;35609;53.166;7.610;2023-03-04T03:30:09;4.90;99.90
49717;DHT22;35609;53.166;7.610;2023-03-04T03:32:35;5.00;99.90
49717;DHT22;35609;53.166;7.610;2023-03-04T03:35:01;5.00;99.90
49717;DHT22;35609;53.166;7.610;2023-03-04T03:37:27;4.90;99.90
49717;DHT22;35609;53.166;7.610;2023-03-04T03:39:52;5.00;99.90
49717;DHT22;35609;53.166;7.610;2023-03-04T03:42:18;4.90;99.90
49717;DHT22;35609;53.166;7.610;2023-03-04T03:44:43;4.90;99.90
49717;DHT22;35609;53.166;7.610;2023-03-04T03:47:09;4.90;99.90
49717;DHT22;35609;53.166;7.610;2023-03-04T03:49:35;5.10;99.90
49717;DHT22;35609;53.166;7.610;2023-03-04T03:52:00;5.00;99.90
49717;DHT22;35609;53.166;7.610;2023-03-04T03:54:26;4.90;99.90
49717;DHT22;35609;53.166;7.610;2023-03-04T03:56:52;5.00;99.90
49717;DHT22;35609;53.166;7.610;2023-03-04T03:59:17;5.00;99.90
49717;DHT22;35609;53.166;7.610;2023-03-04T04:01:43;4.90;99.90
49717;DHT22;35609;53.166;7.610;2023-03-04T04:04:09;4.90;99.90
49717;DHT22;35609;53.166;7.610;2023-03-04T04:06:34;5.00;99.90
49717;DHT22;35609;53.166;7.610;2023-03-04T04:09:00;5.00;99.90
49717;DHT22;35609;53.166;7.610;2023-03-04T04:11:26;4.90;99.90
49717;DHT22;35609;53.166;7.610;2023-03-04T04:13:52;4.90;99.90
49717;DHT22;35609;53.166;7.610;2023-03-04T04:16:18;5.00;99.90
49717;DHT22;35609;53.166;7.610;2023-03-04T04:18:43;5.10;99.90
49717;DHT22;35609;53.166;7.610;2023-03-04T04:21:09;5.10;99.90
49717;DHT22;35609;53.166;7.610;2023-03-04T04:23:35;4.90;99.90
49717;DHT22;35609;53.166;7.610;2023-03-04T04:26:00;4.90;99.90
49717;DHT22;35609;53.166;7.610;2023-03-04T04:28:26;4.80;99.90
49717;DHT22;35609;53.166;7.610;2023-03-04T04:30:51;4.90;99.90
49717;DHT22;35609;53.166;7.610;2023-03-04T04:33:17;5.10;99.90
49717;DHT22;35609;53.166;7.610;2023-03-04T04:35:43;5.00;99.90
49717;DHT22;35609;53.166;7.610;2023-03-04T04:38:09;5.00;99.90
49717;DHT22;35609;53.166;7.610;2023-03-04T04:40:35;5.00;99.90
49717;DHT22;35609;53.166;7.610;2023-03-04T04:43:01;4.90;99.90
49717;DHT22;35609;53.166;7.610;2023-03-04T04:45:27;4.80;99.90
49717;DHT22;35609;53.166;7.610;2023-03-04T04:47:54;4.80;99.90
49717;DHT22;35609;53.166;7.610;2023-03-04T04:50:22;5.00;99.90
49717;DHT22;35609;53.166;7.610;2023-03-04T04:52:48;4.90;99.90
49717;DHT22;35609;53.166;7.610;2023-03-04T04:55:14;4.90;99.90
49717;DHT22;35609;53.166;7.610;2023-03-04T04:57:40;4.90;99.90
49717;DHT22;35609;53.166;7.610;2023-03-04T05:00:06;4.80;99.90
49717;DHT22;35609;53.166;7.610;2023-03-04T05:02:32;4.80;99.90
49717;DHT22;35609;53.166;7.610;2023-03-04T05:05:05;4.70;99.90
49717;DHT22;35609;53.166;7.610;2023-03-04T05:07:31;4.90;99.90
49717;DHT22;35609;53.166;7.610;2023-03-04T05:09:56;4.80;99.90
49717;DHT22;35609;53.166;7.610;2023-03-04T05:12:22;4.70;99.90
49717;DHT22;35609;53.166;7.610;2023-03-04T05:14:48;4.50;99.90
49717;DHT22;35609;53.166;7.610;2023-03-04T05:17:13;4.60;99.90
49717;DHT22;35609;53.166;7.610;2023-03-04T05:19:39;4.50;99.90
49717;DHT22;35609;53.166;7.610;2023-03-04T05:22:05;4.70;99.90
49717;DHT22;35609;53.166;7.610;2023-03-04T05:24:30;4.60;99.90
49717;DHT22;35609;53.166;7.610;2023-03-04T05:26:56;4.40;99.90
49717;DHT22;35609;53.166;7.610;2023-03-04T05:29:22;4.60;99.90
49717;DHT22;35609;53.166;7.610;2023-03-04T05:31:47;4.70;99.90
49717;DHT22;35609;53.166;7.610;2023-03-04T05:34:13;4.60;99.90
49717;DHT22;35609;53.166;7.610;2023-03-04T05:36:39;4.60;99.90
49717;DHT22;35609;53.166;7.610;2023-03-04T05:39:04;4.60;99.90
49717;DHT22;35609;53.166;7.610;2023-03-04T05:41:30;4.70;99.90
49717;DHT22;35609;53.166;7.610;2023-03-04T05:43:55;4.40;99.90
49717;DHT22;35609;53.166;7.610;2023-03-04T05:46:21;4.70;99.90
49717;DHT22;35609;53.166;7.610;2023-03-04T05:48:51;4.60;99.90
49717;DHT22;35609;53.166;7.610;2023-03-04T05:51:17;4.60;99.90
49717;DHT22;35609;53.166;7.610;2023-03-04T05:53:43;4.70;99.90
49717;DHT22;35609;53.166;7.610;2023-03-04T05:56:14;4.70;99.90
49717;DHT22;35609;53.166;7.610;2023-03-04T05:58:40;4.80;99.90
49717;DHT22;35609;53.166;7.610;2023-03-04T06:01:06;4.70;99.90
49717;DHT22;35609;53.166;7.610;2023-03-04T06:03:32;4.70;99.90
49717;DHT22;35609;53.166;7.610;2023-03-04T06:05:58;4.80;99.90
49717;DHT22;35609;53.166;7.610;2023-03-04T06:08:24;4.80;99.90
49717;DHT22;35609;53.166;7.610;2023-03-04T06:10:55;4.70;99.90
49717;DHT22;35609;53.166;7.610;2023-03-04T06:13:21;4.80;99.90
49717;DHT22;35609;53.166;7.610;2023-03-04T06:15:48;4.60;99.90
49717;DHT22;35609;53.166;7.610;2023-03-04T06:18:17;4.90;99.90
49717;DHT22;35609;53.166;7.610;2023-03-04T06:20:43;4.60;99.90
49717;DHT22;35609;53.166;7.610;2023-03-04T06:23:09;4.80;99.90
49717;DHT22;35609;53.166;7.610;2023-03-04T06:25:35;4.90;99.90
49717;DHT22;35609;53.166;7.610;2023-03-04T06:28:01;4.70;99.90
49717;DHT22;35609;53.166;7.610;2023-03-04T06:30:27;4.80;99.90
49717;DHT22;35609;53.166;7.610;2023-03-04T06:32:52;4.90;99.90
49717;DHT22;35609;53.166;7.610;2023-03-04T06:35:18;4.70;99.90
49717;DHT22;35609;53.166;7.610;2023-03-04T06:37:44;4.80;99.90
49717;DHT22;35609;53.166;7.610;2023-03-04T06:40:10;4.70;99.90
49717;DHT22;35609;53.166;7.610;2023-03-04T06:42:36;4.90;99.90
49717;DHT22;35609;53.166;7.610;2023-03-04T06:45:03;4.80;99.90
49717;DHT22;35609;53.166;7.610;2023-03-04T06:47:29;4.90;99.90
49717;DHT22;35609;53.166;7.610;2023-03-04T06:49:55;4.70;99.90
49717;DHT22;35609;53.166;7.610;2023-03-04T06:52:20;4.90;99.90
49717;DHT22;35609;53.166;7.610;2023-03-04T06:54:46;5.00;99.90
49717;DHT22;35609;53.166;7.610;2023-03-04T06:57:11;4.70;99.90
49717;DHT22;35609;53.166;7.610;2023-03-04T06:59:38;4.90;99.90
49717;DHT22;35609;53.166;7.610;2023-03-04T07:02:04;4.80;99.90
49717;DHT22;35609;53.166;7.610;2023-03-04T07:04:30;4.90;99.90
49717;DHT22;35609;53.166;7.610;2023-03-04T07:06:55;4.80;99.90
49717;DHT22;35609;53.166;7.610;2023-03-04T07:09:21;4.70;99.90
49717;DHT22;35609;53.166;7.610;2023-03-04T07:11:46;4.80;99.90
49717;DHT22;35609;53.166;7.610;2023-03-04T07:14:12;5.00;99.90
49717;DHT22;35609;53.166;7.610;2023-03-04T07:16:38;4.90;99.90
49717;DHT22;35609;53.166;7.610;2023-03-04T07:19:04;5.10;99.90
49717;DHT22;35609;53.166;7.610;2023-03-04T07:21:30;5.00;99.90
49717;DHT22;35609;53.166;7.610;2023-03-04T07:23:55;5.00;99.90
49717;DHT22;35609;53.166;7.610;2023-03-04T07:26:21;5.00;99.90
49717;DHT22;35609;53.166;7.610;2023-03-04T07:28:46;5.00;99.90
49717;DHT22;35609;53.166;7.610;2023-03-04T07:33:45;5.20;99.90
49717;DHT22;35609;53.166;7.610;2023-03-04T07:36:11;5.10;99.90
49717;DHT22;35609;53.166;7.610;2023-03-04T07:38:42;5.20;99.90
49717;DHT22;35609;53.166;7.610;2023-03-04T07:41:08;5.30;99.90
49717;DHT22;35609;53.166;7.610;2023-03-04T07:43:33;5.20;99.90
49717;DHT22;35609;53.166;7.610;2023-03-04T07:46:00;5.30;99.90
49717;DHT22;35609;53.166;7.610;2023-03-04T07:48:26;5.20;99.90
49717;DHT22;35609;53.166;7.610;2023-03-04T07:53:32;5.20;99.90
49717;DHT22;35609;53.166;7.610;2023-03-04T07:55:58;5.10;99.90
49717;DHT22;35609;53.166;7.610;2023-03-04T07:58:24;5.00;99.90
49717;DHT22;35609;53.166;7.610;2023-03-04T08:00:50;4.90;99.90
49717;DHT22;35609;53.166;7.610;2023-03-04T08:03:15;5.00;99.90
49717;DHT22;35609;53.166;7.610;2023-03-04T08:05:41;5.10;99.90
49717;DHT22;35609;53.166;7.610;2023-03-04T08:08:07;5.20;99.90
49717;DHT22;35609;53.166;7.610;2023-03-04T08:10:32;4.90;99.90
49717;DHT22;35609;53.166;7.610;2023-03-04T08:12:58;5.10;99.90
49717;DHT22;35609;53.166;7.610;2023-03-04T08:15:24;5.10;99.90
49717;DHT22;35609;53.166;7.610;2023-03-04T08:17:52;5.20;99.90
49717;DHT22;35609;53.166;7.610;2023-03-04T08:20:18;5.20;99.90
49717;DHT22;35609;53.166;7.610;2023-03-04T08:22:43;5.20;99.90
49717;DHT22;35609;53.166;7.610;2023-03-04T08:25:09;5.20;99.90
49717;DHT22;35609;53.166;7.610;2023-03-04T08:27:35;5.20;99.90
49717;DHT22;35609;53.166;7.610;2023-03-04T08:30:05;5.40;99.90
49717;DHT22;35609;53.166;7.610;2023-03-04T08:32:31;5.30;99.90
49717;DHT22;35609;53.166;7.610;2023-03-04T08:34:57;5.40;99.90
49717;DHT22;35609;53.166;7.610;2023-03-04T08:37:22;5.40;99.90
49717;DHT22;35609;53.166;7.610;2023-03-04T08:39:48;5.40;99.90
49717;DHT22;35609;53.166;7.610;2023-03-04T08:42:14;5.50;99.90
49717;DHT22;35609;53.166;7.610;2023-03-04T08:44:40;5.40;99.90
49717;DHT22;35609;53.166;7.610;2023-03-04T08:47:05;5.60;99.90
49717;DHT22;35609;53.166;7.610;2023-03-04T08:49:34;5.60;99.90
49717;DHT22;35609;53.166;7.610;2023-03-04T08:52:00;5.60;99.90
49717;DHT22;35609;53.166;7.610;2023-03-04T08:54:26;5.60;99.90
49717;DHT22;35609;53.166;7.610;2023-03-04T08:56:51;5.50;99.90
49717;DHT22;35609;53.166;7.610;2023-03-04T08:59:17;5.40;99.90
49717;DHT22;35609;53.166;7.610;2023-03-04T09:01:43;5.40;99.90
49717;DHT22;35609;53.166;7.610;2023-03-04T09:04:08;5.40;99.90
49717;DHT22;35609;53.166;7.610;2023-03-04T09:06:34;5.60;99.90
49717;DHT22;35609;53.166;7.610;2023-03-04T09:09:00;5.60;99.90
49717;DHT22;35609;53.166;7.610;2023-03-04T09:11:25;5.70;99.90
49717;DHT22;35609;53.166;7.610;2023-03-04T09:13:51;5.80;99.90
49717;DHT22;35609;53.166;7.610;2023-03-04T09:16:17;5.90;99.90
49717;DHT22;35609;53.166;7.610;2023-03-04T09:18:43;5.90;99.90
49717;DHT22;35609;53.166;7.610;2023-03-04T09:21:09;6.00;99.90
49717;DHT22;35609;53.166;7.610;2023-03-04T09:23:36;6.00;99.90
49717;DHT22;35609;53.166;7.610;2023-03-04T09:26:22;5.90;99.90
49717;DHT22;35609;53.166;7.610;2023-03-04T09:28:53;5.90;99.90
49717;DHT22;35609;53.166;7.610;2023-03-04T09:31:19;5.80;99.90
49717;DHT22;35609;53.166;7.610;2023-03-04T09:33:45;5.70;99.90
49717;DHT22;35609;53.166;7.610;2023-03-04T09:36:13;5.60;99.90
49717;DHT22;35609;53.166;7.610;2023-03-04T09:38:40;5.50;99.90
49717;DHT22;35609;53.166;7.610;2023-03-04T09:41:09;5.40;99.90
49717;DHT22;35609;53.166;7.610;2023-03-04T09:43:37;5.40;99.90
49717;DHT22;35609;53.166;7.610;2023-03-04T09:46:15;5.40;99.90
49717;DHT22;35609;53.166;7.610;2023-03-04T09:48:47;5.40;99.90
49717;DHT22;35609;53.166;7.610;2023-03-04T09:54:06;5.50;99.90
49717;DHT22;35609;53.166;7.610;2023-03-04T09:56:33;5.60;99.90
49717;DHT22;35609;53.166;7.610;2023-03-04T10:01:57;5.50;99.90
49717;DHT22;35609;53.166;7.610;2023-03-04T10:07:02;5.40;99.90
49717;DHT22;35609;53.166;7.610;2023-03-04T10:12:15;5.40;99.90
49717;DHT22;35609;53.166;7.610;2023-03-04T10:17:48;5.80;99.90
49717;DHT22;35609;53.166;7.610;2023-03-04T10:20:21;5.70;99.90
49717;DHT22;35609;53.166;7.610;2023-03-04T10:22:55;5.60;99.90
49717;DHT22;35609;53.166;7.610;2023-03-04T10:25:30;5.40;99.90
49717;DHT22;35609;53.166;7.610;2023-03-04T10:33:24;5.10;99.90
49717;DHT22;35609;53.166;7.610;2023-03-04T10:38:41;5.30;99.90
49717;DHT22;35609;53.166;7.610;2023-03-04T10:41:16;5.40;99.90
49717;DHT22;35609;53.166;7.610;2023-03-04T10:43:42;5.40;99.90
49717;DHT22;35609;53.166;7.610;2023-03-04T10:46:12;5.50;99.90
49717;DHT22;35609;53.166;7.610;2023-03-04T10:48:41;5.70;99.90
49717;DHT22;35609;53.166;7.610;2023-03-04T10:53:47;5.80;99.90
49717;DHT22;35609;53.166;7.610;2023-03-04T10:56:32;5.90;99.90
49717;DHT22;35609;53.166;7.610;2023-03-04T11:02:00;5.70;99.90
49717;DHT22;35609;53.166;7.610;2023-03-04T11:04:32;5.60;99.90
49717;DHT22;35609;53.166;7.610;2023-03-04T11:06:58;5.60;99.90
49717;DHT22;35609;53.166;7.610;2023-03-04T11:09:27;5.80;99.90
49717;DHT22;35609;53.166;7.610;2023-03-04T11:12:01;6.20;99.90
49717;DHT22;35609;53.166;7.610;2023-03-04T11:14:45;6.50;99.90
49717;DHT22;35609;53.166;7.610;2023-03-04T11:17:28;6.50;99.90
49717;DHT22;35609;53.166;7.610;2023-03-04T11:20:03;6.40;99.90
49717;DHT22;35609;53.166;7.610;2023-03-04T11:22:29;6.30;99.90
49717;DHT22;35609;53.166;7.610;2023-03-04T11:25:02;6.40;99.90
49717;DHT22;35609;53.166;7.610;2023-03-04T11:27:39;6.50;99.90
49717;DHT22;35609;53.166;7.610;2023-03-04T11:31:04;6.30;99.90
49717;DHT22;35609;53.166;7.610;2023-03-04T11:33:21;6.20;99.90
49717;DHT22;35609;53.166;7.610;2023-03-04T11:38:20;6.00;99.90
49717;DHT22;35609;53.166;7.610;2023-03-04T11:41:10;5.80;99.90
49717;DHT22;35609;53.166;7.610;2023-03-04T11:43:38;5.70;99.90
49717;DHT22;35609;53.166;7.610;2023-03-04T11:46:14;5.60;99.90
49717;DHT22;35609;53.166;7.610;2023-03-04T11:49:06;5.60;99.90
49717;DHT22;35609;53.166;7.610;2023-03-04T11:57:50;6.30;99.90
49717;DHT22;35609;53.166;7.610;2023-03-04T12:00:29;6.50;99.90
49717;DHT22;35609;53.166;7.610;2023-03-04T12:11:29;6.70;99.90
49717;DHT22;35609;53.166;7.610;2023-03-04T12:16:52;6.60;99.90
49717;DHT22;35609;53.166;7.610;2023-03-04T12:22:33;6.40;99.90
49717;DHT22;35609;53.166;7.610;2023-03-04T12:25:29;6.10;99.90
49717;DHT22;35609;53.166;7.610;2023-03-04T12:28:21;5.60;99.90
49717;DHT22;35609;53.166;7.610;2023-03-04T12:31:27;5.50;99.90
49717;DHT22;35609;53.166;7.610;2023-03-04T12:34:11;5.40;99.90
49717;DHT22;35609;53.166;7.610;2023-03-04T12:36:53;5.50;99.90
49717;DHT22;35609;53.166;7.610;2023-03-04T12:39:40;5.70;99.90
49717;DHT22;35609;53.166;7.610;2023-03-04T12:42:28;5.70;99.90
49717;DHT22;35609;53.166;7.610;2023-03-04T12:45:20;5.70;99.90
49717;DHT22;35609;53.166;7.610;2023-03-04T12:56:04;5.30;99.90
49717;DHT22;35609;53.166;7.610;2023-03-04T12:58:31;5.40;99.90
49717;DHT22;35609;53.166;7.610;2023-03-04T13:06:41;5.60;99.90
49717;DHT22;35609;53.166;7.610;2023-03-04T13:09:26;5.60;99.90
49717;DHT22;35609;53.166;7.610;2023-03-04T13:12:21;5.70;99.90
49717;DHT22;35609;53.166;7.610;2023-03-04T13:17:49;6.30;99.90
49717;DHT22;35609;53.166;7.610;2023-03-04T13:20:34;6.20;99.90
49717;DHT22;35609;53.166;7.610;2023-03-04T13:41:13;5.90;99.90
49717;DHT22;35609;53.166;7.610;2023-03-04T13:43:44;5.80;99.90
49717;DHT22;35609;53.166;7.610;2023-03-04T13:51:32;5.50;99.90
49717;DHT22;35609;53.166;7.610;2023-03-04T14:02:20;5.40;99.90
49717;DHT22;35609;53.166;7.610;2023-03-04T14:04:29;5.50;99.90
49717;DHT22;35609;53.166;7.610;2023-03-04T14:06:58;5.60;99.90
49717;DHT22;35609;53.166;7.610;2023-03-04T14:09:28;5.60;99.90
49717;DHT22;35609;53.166;7.610;2023-03-04T14:12:00;5.70;99.90
49717;DHT22;35609;53.166;7.610;2023-03-04T14:14:39;5.80;99.90
49717;DHT22;35609;53.166;7.610;2023-03-04T14:17:16;6.00;99.90
49717;DHT22;35609;53.166;7.610;2023-03-04T14:19:45;6.10;99.90
49717;DHT22;35609;53.166;7.610;2023-03-04T14:22:31;6.10;99.90
49717;DHT22;35609;53.166;7.610;2023-03-04T14:27:43;5.60;99.90
49717;DHT22;35609;53.166;7.610;2023-03-04T14:30:27;5.40;99.90
49717;DHT22;35609;53.166;7.610;2023-03-04T14:32:55;5.30;99.90
49717;DHT22;35609;53.166;7.610;2023-03-04T14:35:30;5.20;99.90
49717;DHT22;35609;53.166;7.610;2023-03-04T14:38:21;5.30;99.90
49717;DHT22;35609;53.166;7.610;2023-03-04T14:40:52;5.40;99.90
49717;DHT22;35609;53.166;7.610;2023-03-04T14:43:21;5.40;99.90
49717;DHT22;35609;53.166;7.610;2023-03-04T14:45:52;5.40;99.90
49717;DHT22;35609;53.166;7.610;2023-03-04T14:48:26;5.50;99.90
49717;DHT22;35609;53.166;7.610;2023-03-04T14:50:54;5.50;99.90
49717;DHT22;35609;53.166;7.610;2023-03-04T14:53:23;5.50;99.90
49717;DHT22;35609;53.166;7.610;2023-03-04T14:55:59;5.50;99.90
49717;DHT22;35609;53.166;7.610;2023-03-04T14:58:30;5.50;99.90
49717;DHT22;35609;53.166;7.610;2023-03-04T15:01:22;5.50;99.90
49717;DHT22;35609;53.166;7.610;2023-03-04T15:06:28;5.40;99.90
49717;DHT22;35609;53.166;7.610;2023-03-04T15:08:58;5.40;99.90
49717;DHT22;35609;53.166;7.610;2023-03-04T15:11:27;5.40;99.90
49717;DHT22;35609;53.166;7.610;2023-03-04T15:13:55;5.40;99.90
49717;DHT22;35609;53.166;7.610;2023-03-04T15:16:24;5.30;99.90
49717;DHT22;35609;53.166;7.610;2023-03-04T15:19:19;5.20;99.90
49717;DHT22;35609;53.166;7.610;2023-03-04T15:21:47;5.20;99.90
49717;DHT22;35609;53.166;7.610;2023-03-04T15:24:13;5.20;99.90
49717;DHT22;35609;53.166;7.610;2023-03-04T15:26:41;5.20;99.90
49717;DHT22;35609;53.166;7.610;2023-03-04T15:29:14;5.20;99.90
49717;DHT22;35609;53.166;7.610;2023-03-04T15:31:41;5.20;99.90
49717;DHT22;35609;53.166;7.610;2023-03-04T15:34:13;5.20;99.90
49717;DHT22;35609;53.166;7.610;2023-03-04T15:36:39;5.10;99.90
49717;DHT22;35609;53.166;7.610;2023-03-04T15:39:05;5.10;99.90
49717;DHT22;35609;53.166;7.610;2023-03-04T15:41:31;5.10;99.90
49717;DHT22;35609;53.166;7.610;2023-03-04T15:43:57;5.00;99.90
49717;DHT22;35609;53.166;7.610;2023-03-04T15:46:22;5.00;99.90
49717;DHT22;35609;53.166;7.610;2023-03-04T15:48:48;4.90;99.90
49717;DHT22;35609;53.166;7.610;2023-03-04T15:51:20;4.80;99.90
49717;DHT22;35609;53.166;7.610;2023-03-04T15:53:49;4.70;99.90
49717;DHT22;35609;53.166;7.610;2023-03-04T15:56:18;4.60;99.90
49717;DHT22;35609;53.166;7.610;2023-03-04T15:58:48;4.60;99.90
49717;DHT22;35609;53.166;7.610;2023-03-04T16:01:15;4.50;99.90
49717;DHT22;35609;53.166;7.610;2023-03-04T16:03:41;4.50;99.90
49717;DHT22;35609;53.166;7.610;2023-03-04T16:06:09;4.50;99.90
49717;DHT22;35609;53.166;7.610;2023-03-04T16:08:36;4.50;99.90
49717;DHT22;35609;53.166;7.610;2023-03-04T16:11:02;4.40;99.90
49717;DHT22;35609;53.166;7.610;2023-03-04T16:13:28;4.40;99.90
49717;DHT22;35609;53.166;7.610;2023-03-04T16:15:53;4.30;99.90
49717;DHT22;35609;53.166;7.610;2023-03-04T16:18:19;4.20;99.90
49717;DHT22;35609;53.166;7.610;2023-03-04T16:20:47;3.90;99.90
49717;DHT22;35609;53.166;7.610;2023-03-04T16:23:16;3.80;99.90
49717;DHT22;35609;53.166;7.610;2023-03-04T16:25:48;3.70;99.90
49717;DHT22;35609;53.166;7.610;2023-03-04T16:28:14;3.80;99.90
49717;DHT22;35609;53.166;7.610;2023-03-04T16:30:40;3.70;99.90
49717;DHT22;35609;53.166;7.610;2023-03-04T16:33:06;3.60;99.90
49717;DHT22;35609;53.166;7.610;2023-03-04T16:35:34;3.70;99.90
49717;DHT22;35609;53.166;7.610;2023-03-04T16:38:00;3.60;99.90
49717;DHT22;35609;53.166;7.610;2023-03-04T16:40:28;3.70;99.90
49717;DHT22;35609;53.166;7.610;2023-03-04T16:42:55;3.50;99.90
49717;DHT22;35609;53.166;7.610;2023-03-04T16:45:24;3.40;99.90
49717;DHT22;35609;53.166;7.610;2023-03-04T16:47:50;3.40;99.90
49717;DHT22;35609;53.166;7.610;2023-03-04T16:50:22;3.60;99.90
49717;DHT22;35609;53.166;7.610;2023-03-04T16:52:55;3.40;99.90
49717;DHT22;35609;53.166;7.610;2023-03-04T16:55:23;3.50;99.90
49717;DHT22;35609;53.166;7.610;2023-03-04T16:57:49;3.40;99.90
49717;DHT22;35609;53.166;7.610;2023-03-04T17:00:18;3.40;99.90
49717;DHT22;35609;53.166;7.610;2023-03-04T17:02:45;3.60;99.90
49717;DHT22;35609;53.166;7.610;2023-03-04T17:05:17;3.50;99.90
49717;DHT22;35609;53.166;7.610;2023-03-04T17:07:43;3.50;99.90
49717;DHT22;35609;53.166;7.610;2023-03-04T17:10:11;3.40;99.90
49717;DHT22;35609;53.166;7.610;2023-03-04T17:12:40;3.50;99.90
49717;DHT22;35609;53.166;7.610;2023-03-04T17:15:09;3.30;99.90
49717;DHT22;35609;53.166;7.610;2023-03-04T17:17:36;3.30;99.90
49717;DHT22;35609;53.166;7.610;2023-03-04T17:20:02;3.40;99.90
49717;DHT22;35609;53.166;7.610;2023-03-04T17:22:31;3.30;99.90
49717;DHT22;35609;53.166;7.610;2023-03-04T17:24:56;3.30;99.90
49717;DHT22;35609;53.166;7.610;2023-03-04T17:27:22;3.20;99.90
49717;DHT22;35609;53.166;7.610;2023-03-04T17:29:48;3.20;99.90
49717;DHT22;35609;53.166;7.610;2023-03-04T17:32:20;3.30;99.90
49717;DHT22;35609;53.166;7.610;2023-03-04T17:34:45;3.30;99.90
49717;DHT22;35609;53.166;7.610;2023-03-04T17:37:12;3.10;99.90
49717;DHT22;35609;53.166;7.610;2023-03-04T17:39:38;3.20;99.90
49717;DHT22;35609;53.166;7.610;2023-03-04T17:42:04;3.40;99.90
49717;DHT22;35609;53.166;7.610;2023-03-04T17:44:30;3.20;99.90
49717;DHT22;35609;53.166;7.610;2023-03-04T17:46:55;3.20;99.90
49717;DHT22;35609;53.166;7.610;2023-03-04T17:49:22;3.20;99.90